Time;durP1;ratioP1;P1;durP2;ratioP2;P2;SDS_P1;SDS_P2;PMS_P1;PMS_P2;Temp;Humidity;BMP_temperature;BMP_pressure;BME280_temperature;BME280_humidity;BME280_pressure;Samples;Min_cycle;Max_cycle;Signal;HPM_P1;HPM_P2
2023/01/02 00:00:47;;;;;;;99.70;63.93;;;;;;;4.91;87.78;101571.45;123964;1099;104226;-78
2023/01/02 00:03:28;;;;;;;101.97;64.13;;;;;;;4.83;87.57;101568.28;123979;1099;104274;-79
2023/01/02 00:06:01;;;;;;;97.17;62.07;;;;;;;4.74;87.57;101568.50;124043;1099;104203;-79
2023/01/02 00:08:33;;;;;;;105.87;65.40;;;;;;;4.65;88.08;101580.80;124029;1099;104248;-78
2023/01/02 00:11:04;;;;;;;106.97;66.50;;;;;;;4.56;87.30;101588.78;123973;1099;104313;-78
2023/01/02 00:13:35;;;;;;;101.60;64.97;;;;;;;4.48;87.78;101595.98;123980;1099;104265;-78
2023/01/02 00:16:08;;;;;;;108.00;68.40;;;;;;;4.52;87.61;101594.55;124061;1099;104263;-78
2023/01/02 00:18:39;;;;;;;105.43;67.13;;;;;;;4.53;87.57;101598.05;124067;1099;104252;-79
2023/01/02 00:21:13;;;;;;;108.30;66.97;;;;;;;4.49;87.32;101595.21;124085;1099;104299;-78
2023/01/02 00:23:44;;;;;;;104.15;64.95;;;;;;;4.46;87.20;101599.27;124010;1099;104252;-78
2023/01/02 00:26:17;;;;;;;107.63;67.83;;;;;;;4.44;87.29;101593.03;123894;1098;104239;-79
2023/01/02 00:28:48;;;;;;;107.80;67.70;;;;;;;4.45;87.65;101590.55;123880;1099;104270;-79
2023/01/02 00:31:19;;;;;;;111.70;70.23;;;;;;;4.46;87.81;101581.98;123909;1099;104358;-78
2023/01/02 00:33:51;;;;;;;107.10;66.20;;;;;;;4.48;87.95;101587.30;123839;1099;104249;-79
2023/01/02 00:36:22;;;;;;;108.93;69.20;;;;;;;4.50;87.40;101578.84;123825;1099;104312;-79
2023/01/02 00:38:55;;;;;;;106.87;67.27;;;;;;;4.53;87.27;101575.55;123795;1099;104245;-79
2023/01/02 00:41:26;;;;;;;109.53;67.10;;;;;;;4.54;87.78;101576.48;123830;1098;104281;-79
2023/01/02 00:43:58;;;;;;;107.87;66.73;;;;;;;4.56;87.70;101564.48;124017;1099;104252;-79
2023/01/02 00:46:29;;;;;;;112.90;69.73;;;;;;;4.61;88.01;101569.27;123874;1099;104277;-80
2023/01/02 00:49:00;;;;;;;112.43;67.70;;;;;;;4.64;88.24;101566.91;123890;1099;104275;-79
2023/01/02 00:51:31;;;;;;;113.73;70.50;;;;;;;4.70;88.36;101566.45;123722;1099;104396;-79
2023/01/02 00:54:03;;;;;;;108.30;68.85;;;;;;;4.72;88.15;101564.89;123791;1098;104652;-79
2023/01/02 00:56:34;;;;;;;109.37;67.80;;;;;;;4.75;87.91;101565.09;123827;1098;104255;-80
2023/01/02 00:59:05;;;;;;;112.77;67.97;;;;;;;4.74;88.30;101563.30;123800;1099;104372;-80
2023/01/02 01:01:37;;;;;;;110.73;69.87;;;;;;;4.73;87.77;101561.48;123784;1099;104526;-79
2023/01/02 01:04:08;;;;;;;113.60;67.97;;;;;;;4.72;87.81;101554.49;123830;1099;104399;-80
2023/01/02 01:06:40;;;;;;;106.07;67.17;;;;;;;4.73;88.55;101547.58;123750;1099;104245;-79
2023/01/02 01:09:12;;;;;;;104.45;65.50;;;;;;;4.70;88.10;101550.84;123790;1099;104408;-79
2023/01/02 01:11:43;;;;;;;107.47;66.30;;;;;;;4.62;88.11;101552.86;123767;1099;104283;-79
2023/01/02 01:14:15;;;;;;;107.97;66.93;;;;;;;4.54;88.02;101556.58;123763;1098;104332;-79
2023/01/02 01:16:46;;;;;;;106.70;67.37;;;;;;;4.46;88.21;101560.29;123743;1099;104364;-79
2023/01/02 01:19:18;;;;;;;110.35;69.90;;;;;;;4.42;87.96;101556.52;123776;1098;104341;-79
2023/01/02 01:21:49;;;;;;;107.15;68.05;;;;;;;4.36;87.72;101549.95;123823;1099;104181;-79
2023/01/02 01:24:22;;;;;;;110.30;69.10;;;;;;;4.29;87.39;101548.59;123837;1098;104650;-80
2023/01/02 01:26:53;;;;;;;109.50;69.23;;;;;;;4.27;88.20;101553.66;123731;1099;104293;-80
2023/01/02 01:29:24;;;;;;;109.43;68.47;;;;;;;4.26;88.00;101549.23;123795;1099;104306;-80
2023/01/02 01:31:56;;;;;;;105.50;67.97;;;;;;;4.25;87.57;101552.61;123756;1099;104300;-79
2023/01/02 01:34:27;;;;;;;109.03;71.07;;;;;;;4.27;88.20;101552.73;123767;1099;104200;-79
2023/01/02 01:36:59;;;;;;;112.73;68.97;;;;;;;4.29;87.97;101548.59;123848;1099;104393;-79
2023/01/02 01:39:31;;;;;;;101.43;66.07;;;;;;;4.30;87.86;101548.70;123829;1099;104408;-79
2023/01/02 01:42:03;;;;;;;105.33;65.80;;;;;;;4.28;87.95;101550.25;123813;1098;104274;-79
2023/01/02 01:44:44;;;;;;;108.87;67.17;;;;;;;4.29;88.37;101557.27;123966;1099;104242;-80
2023/01/02 01:47:28;;;;;;;107.77;66.33;;;;;;;4.23;87.59;101563.70;123781;1099;104707;-80
2023/01/02 01:50:05;;;;;;;106.20;66.17;;;;;;;4.17;87.71;101569.30;123871;1099;104293;-79
2023/01/02 01:52:41;;;;;;;106.13;66.20;;;;;;;4.11;87.86;101567.16;123812;1099;104376;-79
2023/01/02 01:55:17;;;;;;;109.17;66.20;;;;;;;4.11;88.26;101567.16;123864;1098;104245;-80
2023/01/02 01:57:53;;;;;;;105.63;65.07;;;;;;;4.12;87.87;101562.85;123868;1099;104255;-79
2023/01/02 02:00:25;;;;;;;106.00;65.00;;;;;;;4.16;87.98;101566.59;123822;1099;104178;-79
2023/01/02 02:03:04;;;;;;;104.83;66.00;;;;;;;4.18;88.48;101568.53;123762;1099;104518;-79
2023/01/02 02:05:36;;;;;;;103.00;62.70;;;;;;;4.20;88.71;101564.34;123791;1098;104203;-80
2023/01/02 02:08:15;;;;;;;101.20;63.73;;;;;;;4.22;88.03;101557.57;123869;1099;104357;-78
2023/01/02 02:10:48;;;;;;;101.10;64.17;;;;;;;4.24;88.75;101560.29;123712;1099;104351;-80
2023/01/02 02:13:19;;;;;;;105.10;65.80;;;;;;;4.25;88.61;101555.21;123825;1099;104274;-80
2023/01/02 02:16:11;;;;;;;99.95;63.60;;;;;;;4.26;88.36;101564.83;123725;1099;104297;-79
2023/01/02 02:19:00;;;;;;;126.75;65.60;;;;;;;4.27;88.18;101564.05;123882;1099;105733;-79
2023/01/02 02:21:56;;;;;;;149.50;69.33;;;;;;;4.28;88.61;101567.55;123871;1099;104322;-80
2023/01/02 02:24:53;;;;;;;148.70;69.00;;;;;;;4.28;88.76;101560.65;123855;1099;104309;-78
2023/01/02 02:27:50;;;;;;;154.07;69.60;;;;;;;4.25;88.50;101556.91;124036;1099;104271;-78
2023/01/02 02:30:24;;;;;;;99.60;60.47;;;;;;;4.18;88.10;101573.73;123963;1099;118302;-78
2023/01/02 02:33:20;;;;;;;107.10;63.25;;;;;;;4.15;88.60;101568.29;123875;1098;104293;-78
2023/01/02 02:36:00;;;;;;;99.57;61.30;;;;;;;4.14;88.66;101566.47;123772;1098;104207;-78
2023/01/02 02:38:51;;;;;;;102.23;61.37;;;;;;;4.12;87.94;101565.45;123834;1098;104329;-79
2023/01/02 02:41:33;;;;;;;99.97;61.93;;;;;;;4.07;87.96;101574.58;123768;1099;104350;-79
2023/01/02 02:44:25;;;;;;;104.90;60.17;;;;;;;4.01;88.24;101579.29;123785;1099;104658;-78
2023/01/02 02:47:03;;;;;;;145.23;67.13;;;;;;;3.95;88.08;101577.10;123868;1099;104364;-78
2023/01/02 02:49:46;;;;;;;161.90;66.35;;;;;;;3.94;88.12;101575.28;123763;1099;104316;-78
2023/01/02 02:52:26;;;;;;;120.40;63.73;;;;;;;3.94;88.49;101580.47;123842;1098;104353;-78
2023/01/02 02:55:04;;;;;;;130.40;65.57;;;;;;;3.94;88.97;101571.02;123723;1099;104245;-80
2023/01/02 02:57:38;;;;;;;142.47;64.37;;;;;;;3.95;87.67;101574.50;123650;1098;104351;-79
2023/01/02 03:00:13;;;;;;;206.70;72.90;;;;;;;3.88;88.50;101575.72;123837;1099;104237;-78
2023/01/02 03:02:44;;;;;;;158.03;71.40;;;;;;;3.86;88.17;101571.17;123789;1099;104248;-78
2023/01/02 03:05:21;;;;;;;134.83;66.90;;;;;;;3.85;88.50;101569.34;123689;1099;104341;-79
2023/01/02 03:07:58;;;;;;;116.77;61.43;;;;;;;3.85;88.63;101567.69;123895;1099;104392;-78
2023/01/02 03:10:36;;;;;;;110.77;59.30;;;;;;;3.86;88.07;101576.37;123751;1099;104415;-79
2023/01/02 03:13:19;;;;;;;92.60;58.53;;;;;;;3.81;88.16;101569.91;123755;1099;104655;-78
2023/01/02 03:16:00;;;;;;;95.83;58.67;;;;;;;3.80;88.61;101568.98;123735;1099;104226;-78
2023/01/02 03:18:39;;;;;;;93.87;57.97;;;;;;;3.81;88.34;101577.70;123729;1099;104348;-79
2023/01/02 03:21:19;;;;;;;108.27;59.67;;;;;;;3.79;88.14;101574.98;123661;1099;104286;-78
2023/01/02 03:23:51;;;;;;;95.87;58.10;;;;;;;3.77;88.35;101580.05;123779;1099;104392;-78
2023/01/02 03:26:27;;;;;;;96.53;59.93;;;;;;;3.71;88.04;101584.75;123697;1098;104386;-78
2023/01/02 03:29:02;;;;;;;96.30;57.30;;;;;;;3.65;88.23;101581.66;123733;1099;104255;-78
2023/01/02 03:31:38;;;;;;;95.53;59.00;;;;;;;3.64;88.33;101581.53;123592;1099;104302;-78
2023/01/02 03:34:14;;;;;;;96.87;57.90;;;;;;;3.65;88.37;101591.14;123672;1099;104370;-78
2023/01/02 03:36:50;;;;;;;95.20;58.07;;;;;;;3.62;88.37;101590.89;123603;1099;104329;-79
2023/01/02 03:39:25;;;;;;;98.07;56.70;;;;;;;3.59;88.43;101584.66;123679;1099;104328;-77
2023/01/02 03:42:00;;;;;;;97.23;58.43;;;;;;;3.61;88.53;101587.37;123673;1099;104386;-78
2023/01/02 03:44:38;;;;;;;102.03;60.47;;;;;;;3.61;88.69;101592.56;123877;1099;104207;-78
2023/01/02 03:47:19;;;;;;;100.00;59.57;;;;;;;3.61;88.95;101595.16;123538;1099;104229;-78
2023/01/02 03:49:54;;;;;;;99.57;59.90;;;;;;;3.64;88.60;101597.11;123828;1099;104335;-78
2023/01/02 03:52:25;;;;;;;96.07;58.03;;;;;;;3.65;89.28;101596.34;123825;1099;104321;-78
2023/01/02 03:54:58;;;;;;;94.45;57.05;;;;;;;3.66;89.21;101593.86;123907;1099;104351;-78
2023/01/02 03:57:38;;;;;;;96.50;59.20;;;;;;;3.67;89.11;101598.25;123729;1099;104728;-78
2023/01/02 04:00:13;;;;;;;88.03;54.43;;;;;;;3.69;88.86;101593.19;123722;1099;104348;-78
2023/01/02 04:02:49;;;;;;;95.35;56.65;;;;;;;3.69;88.09;101595.78;123702;1099;104795;-78
2023/01/02 04:05:28;;;;;;;95.67;56.17;;;;;;;3.67;88.23;101592.16;123613;1099;104306;-78
2023/01/02 04:08:04;;;;;;;93.87;55.03;;;;;;;3.63;89.08;101600.47;123701;1099;104325;-78
2023/01/02 04:10:38;;;;;;;90.33;53.87;;;;;;;3.57;89.59;101606.98;123709;1099;104275;-78
2023/01/02 04:13:16;;;;;;;89.40;54.77;;;;;;;3.50;89.82;101608.95;123723;1099;104230;-78
2023/01/02 04:15:50;;;;;;;91.93;55.23;;;;;;;3.46;88.75;101601.69;123758;1099;104325;-79
2023/01/02 04:18:25;;;;;;;96.03;56.40;;;;;;;3.42;88.87;101610.92;123828;1099;104788;-79
2023/01/02 04:21:00;;;;;;;95.67;58.60;;;;;;;3.34;88.60;101606.80;123737;1099;104332;-79
2023/01/02 04:23:37;;;;;;;96.13;57.33;;;;;;;3.26;88.39;101613.02;123659;1099;104270;-79
2023/01/02 04:26:12;;;;;;;94.80;57.27;;;;;;;3.24;88.52;101611.23;123745;1099;104274;-79
2023/01/02 04:28:43;;;;;;;92.40;56.13;;;;;;;3.24;88.29;101608.64;123724;1099;104345;-79
2023/01/02 04:31:19;;;;;;;95.13;56.93;;;;;;;3.27;88.21;101605.36;123690;1099;104193;-78
2023/01/02 04:33:53;;;;;;;89.50;57.30;;;;;;;3.29;89.04;101606.42;123706;1099;104335;-79
2023/01/02 04:36:25;;;;;;;95.33;58.37;;;;;;;3.30;88.73;101594.34;123651;1099;104274;-79
2023/01/02 04:38:56;;;;;;;92.10;55.80;;;;;;;3.31;88.26;101596.17;123618;1099;104249;-79
2023/01/02 04:41:28;;;;;;;93.07;55.50;;;;;;;3.33;88.60;101594.59;123680;1099;104494;-78
2023/01/02 04:44:00;;;;;;;94.43;56.63;;;;;;;3.34;88.56;101596.42;123677;1099;104273;-79
2023/01/02 04:46:31;;;;;;;93.50;55.73;;;;;;;3.36;88.70;101600.94;123726;1099;104267;-78
2023/01/02 04:49:02;;;;;;;92.57;54.57;;;;;;;3.40;89.03;101591.73;123674;1098;104313;-78
2023/01/02 04:51:34;;;;;;;89.77;55.90;;;;;;;3.42;88.87;101597.95;123730;1099;104172;-79
2023/01/02 04:54:05;;;;;;;85.57;51.43;;;;;;;3.40;88.82;101599.52;123698;1099;104299;-79
2023/01/02 04:56:37;;;;;;;87.03;51.53;;;;;;;3.35;88.57;101603.41;123625;1099;104321;-79
2023/01/02 04:59:09;;;;;;;84.77;51.33;;;;;;;3.30;88.66;101605.62;123692;1099;104255;-79
2023/01/02 05:01:40;;;;;;;80.90;50.13;;;;;;;3.31;89.54;101615.23;123680;1099;104351;-80
2023/01/02 05:04:12;;;;;;;86.17;50.30;;;;;;;3.32;89.05;101608.34;123807;1099;104300;-78
2023/01/02 05:06:43;;;;;;;83.20;51.23;;;;;;;3.33;89.32;101620.54;123693;1099;104385;-79
2023/01/02 05:09:15;;;;;;;80.80;49.80;;;;;;;3.32;88.69;101621.31;123664;1099;104293;-78
2023/01/02 05:11:47;;;;;;;72.63;44.73;;;;;;;3.30;89.69;101635.85;123594;1099;105792;-79
2023/01/02 05:14:18;;;;;;;78.00;47.03;;;;;;;3.22;89.26;101628.33;123434;1099;104711;-79
2023/01/02 05:16:50;;;;;;;78.63;47.10;;;;;;;3.19;88.42;101632.36;123628;1099;104258;-79
2023/01/02 05:19:21;;;;;;;81.63;48.67;;;;;;;3.19;89.25;101648.83;123635;1099;104421;-79
2023/01/02 05:24:41;;;;;;;87.53;53.60;;;;;;;3.21;89.19;101639.51;123619;1099;104245;-79
2023/01/02 05:27:12;;;;;;;92.50;56.63;;;;;;;3.17;89.26;101645.20;123668;1099;104830;-79
2023/01/02 05:29:43;;;;;;;88.00;54.87;;;;;;;3.14;88.80;101644.95;123692;1099;104272;-78
2023/01/02 05:32:15;;;;;;;88.53;54.77;;;;;;;3.12;88.97;101641.33;123654;1099;104360;-79
2023/01/02 05:34:46;;;;;;;90.60;55.67;;;;;;;3.13;88.60;101640.56;123686;1099;104245;-79
2023/01/02 05:37:17;;;;;;;90.90;55.47;;;;;;;3.15;89.02;101644.18;123611;1099;104342;-79
2023/01/02 05:39:48;;;;;;;87.80;53.20;;;;;;;3.16;88.86;101645.97;123650;1099;104357;-78
2023/01/02 05:42:20;;;;;;;92.67;53.23;;;;;;;3.14;89.15;101646.64;123722;1099;104322;-79
2023/01/02 05:44:51;;;;;;;88.47;53.20;;;;;;;3.14;89.36;101646.64;123639;1099;104493;-79
2023/01/02 05:47:23;;;;;;;80.20;50.37;;;;;;;3.13;89.40;101650.01;123505;1099;104315;-79
2023/01/02 05:49:54;;;;;;;87.77;52.97;;;;;;;3.15;88.69;101645.88;123688;1099;104255;-78
2023/01/02 05:52:26;;;;;;;84.00;52.15;;;;;;;3.16;89.38;101645.97;123605;1099;104280;-79
2023/01/02 05:54:57;;;;;;;81.63;52.20;;;;;;;3.18;89.04;101649.63;123582;1098;104280;-79
2023/01/02 05:57:28;;;;;;;91.70;53.03;;;;;;;3.21;88.84;101641.17;123621;1099;104210;-79
2023/01/02 05:59:59;;;;;;;89.90;53.60;;;;;;;3.24;89.20;101636.23;123604;1099;104357;-79
2023/01/02 06:02:31;;;;;;;96.17;56.33;;;;;;;3.27;89.48;101641.68;123643;1099;104302;-79
2023/01/02 06:05:02;;;;;;;90.20;53.83;;;;;;;3.29;89.31;101634.95;123604;1099;104696;-79
2023/01/02 06:07:34;;;;;;;86.83;53.33;;;;;;;3.33;88.94;101642.19;123741;1099;104356;-79
2023/01/02 06:10:06;;;;;;;92.67;54.00;;;;;;;3.34;89.91;101638.83;123654;1099;104383;-78
2023/01/02 06:12:37;;;;;;;96.80;57.90;;;;;;;3.37;90.01;101638.19;123411;1099;104350;-78
2023/01/02 06:15:10;;;;;;;90.90;54.45;;;;;;;3.38;89.06;101645.17;123662;1099;104245;-79
2023/01/02 06:17:42;;;;;;;92.87;56.37;;;;;;;3.39;89.27;101640.11;123767;1099;104353;-79
2023/01/02 06:20:13;;;;;;;93.03;56.40;;;;;;;3.41;89.08;101643.76;123654;1099;104686;-78
2023/01/02 06:22:44;;;;;;;95.73;55.50;;;;;;;3.42;89.39;101655.03;123578;1099;104457;-78
2023/01/02 06:25:16;;;;;;;90.20;55.67;;;;;;;3.43;89.50;101649.08;123631;1099;107085;-78
2023/01/02 06:27:47;;;;;;;88.00;54.67;;;;;;;3.47;89.37;101656.31;123698;1099;104200;-78
2023/01/02 06:30:18;;;;;;;83.40;51.10;;;;;;;3.52;89.16;101664.48;123641;1098;104248;-78
2023/01/02 06:32:49;;;;;;;87.07;52.83;;;;;;;3.56;89.03;101663.97;123651;1099;104245;-78
2023/01/02 06:35:21;;;;;;;80.13;49.57;;;;;;;3.58;89.96;101668.52;123605;1099;118998;-78
2023/01/02 06:37:52;;;;;;;82.33;49.63;;;;;;;3.55;89.52;101668.26;123604;1099;104322;-78
2023/01/02 06:40:23;;;;;;;81.33;51.47;;;;;;;3.51;89.22;101673.06;123699;1099;104242;-79
2023/01/02 06:42:54;;;;;;;80.07;47.93;;;;;;;3.48;89.04;101668.52;123717;1099;104297;-78
2023/01/02 06:45:25;;;;;;;76.93;46.77;;;;;;;3.46;89.50;101666.56;123906;1099;104275;-78
2023/01/02 06:47:59;;;;;;;80.40;47.97;;;;;;;3.44;89.48;101671.63;123659;1099;104399;-78
2023/01/02 06:50:30;;;;;;;80.87;46.73;;;;;;;3.49;89.69;101662.56;123675;1099;104756;-78
2023/01/02 06:53:02;;;;;;;80.40;48.03;;;;;;;3.52;89.41;101674.86;123580;1099;104274;-79
2023/01/02 06:55:33;;;;;;;76.60;46.17;;;;;;;3.57;89.71;101674.47;123721;1098;104348;-78
2023/01/02 06:58:04;;;;;;;85.60;49.30;;;;;;;3.58;89.63;101676.30;124055;1099;104274;-79
2023/01/02 07:00:35;;;;;;;81.00;49.10;;;;;;;3.54;90.07;101674.22;123687;1099;104248;-79
2023/01/02 07:03:08;;;;;;;81.90;49.23;;;;;;;3.50;89.53;101671.23;123848;1099;104306;-79
2023/01/02 07:05:39;;;;;;;87.07;49.97;;;;;;;3.47;89.61;101674.48;123840;1098;104274;-78
2023/01/02 07:08:11;;;;;;;85.47;48.13;;;;;;;3.45;89.77;101689.02;124070;1099;104347;-79
2023/01/02 07:10:42;;;;;;;85.90;49.53;;;;;;;3.45;89.24;101677.75;124113;1099;104271;-78
2023/01/02 07:13:13;;;;;;;79.90;48.27;;;;;;;3.47;89.29;101682.27;124018;1099;104307;-79
2023/01/02 07:15:44;;;;;;;80.97;48.53;;;;;;;3.56;89.68;101677.84;123886;1098;104347;-79
2023/01/02 07:18:16;;;;;;;86.23;48.80;;;;;;;3.69;90.08;101676.25;124158;1099;104270;-79
2023/01/02 07:20:54;;;;;;;85.80;50.63;;;;;;;3.78;90.28;101675.31;123547;1099;104245;-79
2023/01/02 07:23:26;;;;;;;82.30;48.30;;;;;;;3.89;90.09;101672.69;123888;1099;104296;-79
2023/01/02 07:25:58;;;;;;;81.03;47.83;;;;;;;3.97;90.02;101671.61;123836;1099;104351;-79
2023/01/02 07:28:31;;;;;;;79.37;48.13;;;;;;;4.05;90.13;101677.43;123930;1099;104242;-79
2023/01/02 07:31:04;;;;;;;77.87;47.30;;;;;;;4.15;90.12;101674.80;123862;1099;104188;-79
2023/01/02 07:33:36;;;;;;;85.53;49.73;;;;;;;4.24;90.54;101675.54;123783;1099;104283;-79
2023/01/02 07:36:11;;;;;;;82.03;48.20;;;;;;;4.35;90.19;101667.67;124074;1099;104286;-79
2023/01/02 07:38:43;;;;;;;82.87;49.10;;;;;;;4.47;90.23;101663.44;123973;1099;104367;-80
2023/01/02 07:41:16;;;;;;;74.23;46.43;;;;;;;4.57;90.20;101668.59;123829;1099;104421;-78
2023/01/02 07:43:49;;;;;;;81.30;46.95;;;;;;;4.66;90.54;101669.31;123960;1099;104256;-79
2023/01/02 07:46:21;;;;;;;73.07;45.17;;;;;;;4.72;90.16;101675.77;123923;1099;104374;-79
2023/01/02 07:48:53;;;;;;;77.93;45.77;;;;;;;4.74;90.67;101679.42;123851;1099;104226;-79
2023/01/02 07:51:24;;;;;;;76.33;45.60;;;;;;;4.78;90.69;101686.66;123605;1099;104404;-79
2023/01/02 07:53:55;;;;;;;80.07;45.47;;;;;;;4.82;90.72;101691.31;123830;1099;104335;-79
2023/01/02 07:56:26;;;;;;;77.57;47.70;;;;;;;4.85;90.46;101691.55;123883;1099;104303;-79
2023/01/02 07:58:57;;;;;;;78.30;48.10;;;;;;;4.92;90.48;101686.02;123975;1099;104348;-79
2023/01/02 08:01:29;;;;;;;84.33;51.37;;;;;;;4.91;90.07;101684.23;123903;1099;104277;-79
2023/01/02 08:04:00;;;;;;;82.45;51.90;;;;;;;4.89;89.42;101688.38;123925;1099;104399;-79
2023/01/02 08:06:32;;;;;;;83.73;50.10;;;;;;;4.93;90.13;101680.04;123766;1098;104403;-79
2023/01/02 08:09:03;;;;;;;79.33;47.97;;;;;;;4.97;90.34;101682.10;123881;1099;104300;-79
2023/01/02 08:11:37;;;;;;;76.37;45.17;;;;;;;5.02;90.53;101685.95;123839;1099;104255;-79
2023/01/02 08:14:09;;;;;;;72.43;46.47;;;;;;;5.08;90.24;101679.40;123900;1099;105152;-79
2023/01/02 08:16:40;;;;;;;76.67;48.70;;;;;;;5.18;90.25;101679.33;123970;1099;104335;-79
2023/01/02 08:19:11;;;;;;;78.50;48.87;;;;;;;5.30;90.59;101682.86;123884;1099;104354;-80
2023/01/02 08:21:42;;;;;;;81.47;51.03;;;;;;;5.44;90.76;101681.30;123846;1099;104245;-79
2023/01/02 08:24:13;;;;;;;77.00;48.20;;;;;;;5.54;90.41;101683.78;123817;1099;104322;-79
2023/01/02 08:26:45;;;;;;;82.00;49.40;;;;;;;5.61;90.48;101682.57;123859;1099;104361;-79
2023/01/02 08:29:16;;;;;;;80.67;50.70;;;;;;;5.63;90.33;101678.38;123675;1099;104274;-79
2023/01/02 08:31:47;;;;;;;76.33;46.63;;;;;;;5.67;90.55;101674.28;123796;1098;104434;-79
2023/01/02 08:34:19;;;;;;;71.07;44.87;;;;;;;5.75;90.42;101679.28;123673;1099;104272;-79
2023/01/02 08:36:51;;;;;;;74.03;44.27;;;;;;;5.83;90.52;101674.64;124270;1099;104829;-79
2023/01/02 08:39:22;;;;;;;67.10;42.90;;;;;;;5.88;90.65;101674.98;124175;1099;104252;-79
2023/01/02 08:41:53;;;;;;;69.27;42.63;;;;;;;5.94;90.54;101662.41;124137;1099;104274;-79
2023/01/02 08:44:25;;;;;;;70.97;43.17;;;;;;;6.02;90.62;101657.78;123944;1099;104249;-79
2023/01/02 08:46:56;;;;;;;69.23;41.93;;;;;;;6.08;90.71;101646.09;123927;1099;104176;-79
2023/01/02 08:49:27;;;;;;;69.43;41.83;;;;;;;6.17;90.85;101655.36;123869;1099;104274;-79
2023/01/02 08:51:58;;;;;;;68.67;42.33;;;;;;;6.24;90.87;101649.80;124154;1099;105829;-79
2023/01/02 08:54:30;;;;;;;64.33;41.10;;;;;;;6.33;90.76;101654.75;123930;1099;104679;-80
2023/01/02 08:57:01;;;;;;;65.55;40.65;;;;;;;6.40;90.80;101655.30;123942;1099;104325;-80
2023/01/02 08:59:32;;;;;;;65.77;40.20;;;;;;;6.48;90.68;101651.55;123834;1099;104275;-79
2023/01/02 09:02:03;;;;;;;63.30;39.13;;;;;;;6.55;90.67;101642.45;124055;1099;104290;-80
2023/01/02 09:04:35;;;;;;;73.40;42.70;;;;;;;6.59;90.17;101643.55;123877;1099;104274;-80
2023/01/02 09:07:06;;;;;;;62.63;38.80;;;;;;;6.58;89.74;101645.27;124018;1099;104323;-79
2023/01/02 09:09:37;;;;;;;65.80;40.07;;;;;;;6.61;90.22;101639.38;123960;1099;104181;-80
2023/01/02 09:12:09;;;;;;;67.30;40.53;;;;;;;6.65;90.08;101630.95;123987;1098;104328;-80
2023/01/02 09:14:40;;;;;;;68.27;39.70;;;;;;;6.66;90.06;101624.94;123907;1099;104258;-79
2023/01/02 09:17:11;;;;;;;63.70;39.23;;;;;;;6.72;90.18;101632.30;123988;1099;104245;-80
2023/01/02 09:19:44;;;;;;;62.07;37.83;;;;;;;6.79;89.90;101626.69;123955;1099;104396;-80
2023/01/02 09:22:15;;;;;;;62.05;39.35;;;;;;;6.84;90.25;101620.10;124014;1099;104380;-80
2023/01/02 09:24:46;;;;;;;63.63;38.23;;;;;;;6.89;90.27;101617.77;123816;1099;104348;-79
2023/01/02 09:27:17;;;;;;;63.87;38.40;;;;;;;6.92;90.36;101608.47;124201;1099;104248;-80
2023/01/02 09:29:49;;;;;;;61.70;37.60;;;;;;;6.97;90.36;101596.63;124222;1099;104197;-79
2023/01/02 09:32:21;;;;;;;63.03;36.87;;;;;;;7.01;90.42;101592.52;124078;1099;104277;-80
2023/01/02 09:34:52;;;;;;;63.53;37.47;;;;;;;7.06;90.46;101591.14;123962;1099;104258;-80
2023/01/02 09:37:23;;;;;;;61.70;37.47;;;;;;;7.11;90.60;101594.95;124050;1099;104309;-80
2023/01/02 09:39:54;;;;;;;60.57;37.43;;;;;;;7.15;90.55;101586.55;124035;1099;104310;-80
2023/01/02 09:42:25;;;;;;;61.10;36.27;;;;;;;7.17;90.56;101587.54;124047;1099;104255;-79
2023/01/02 09:45:01;;;;;;;61.47;37.30;;;;;;;7.22;90.49;101581.73;123884;1099;104417;-79
2023/01/02 09:47:33;;;;;;;59.67;36.57;;;;;;;7.25;90.62;101576.72;123862;1099;104626;-80
2023/01/02 09:50:10;;;;;;;62.23;36.37;;;;;;;7.30;90.15;101573.58;123850;1099;104284;-79
2023/01/02 09:52:44;;;;;;;59.27;36.00;;;;;;;7.34;90.48;101570.38;123985;1099;104258;-80
2023/01/02 09:55:24;;;;;;;60.05;35.73;;;;;;;7.39;90.49;101565.47;124017;1099;104274;-80
2023/01/02 09:58:03;;;;;;;60.67;37.40;;;;;;;7.44;90.47;101564.05;124006;1099;104338;-79
2023/01/02 10:00:37;;;;;;;56.93;34.80;;;;;;;7.50;90.39;101561.84;124000;1099;104373;-80
2023/01/02 10:03:19;;;;;;;53.40;33.70;;;;;;;7.55;90.30;101556.91;124141;1099;104242;-80
2023/01/02 10:06:09;;;;;;;58.70;34.23;;;;;;;7.59;90.64;101551.09;124001;1099;104294;-80
2023/01/02 10:08:48;;;;;;;57.83;34.30;;;;;;;7.65;90.52;101553.17;123934;1099;104245;-79
2023/01/02 10:11:37;;;;;;;58.07;33.03;;;;;;;7.72;90.57;101543.22;123782;1102;102286;-80
2023/01/02 10:14:17;;;;;;;58.30;34.67;;;;;;;7.83;90.69;101543.91;124052;1099;104411;-81
2023/01/02 10:16:52;;;;;;;57.30;34.27;;;;;;;7.95;91.01;101535.95;123951;1099;104258;-80
2023/01/02 10:19:33;;;;;;;57.47;33.63;;;;;;;8.07;90.56;101531.48;124023;1099;104377;-80
2023/01/02 10:22:08;;;;;;;54.70;33.17;;;;;;;8.20;91.06;101533.14;123802;1099;104248;-80
2023/01/02 10:24:48;;;;;;;52.50;32.43;;;;;;;8.30;91.32;101529.38;123982;1099;104252;-79
2023/01/02 10:27:22;;;;;;;56.83;33.33;;;;;;;8.41;91.09;101524.80;124084;1098;104354;-80
2023/01/02 10:29:55;;;;;;;;;;;;;;;8.51;90.76;101518.44;124437;1099;104280;-80
2023/01/02 10:32:28;;;;;;;52.40;33.07;;;;;;;8.59;90.88;101515.48;124050;1099;104274;-80
2023/01/02 10:35:22;;;;;;;57.17;33.43;;;;;;;8.69;90.88;101513.41;124068;1099;104175;-80
2023/01/02 10:37:56;;;;;;;58.00;35.00;;;;;;;8.78;90.81;101512.23;124057;1098;104323;-80
2023/01/02 10:40:27;;;;;;;59.18;37.20;;;;;;;8.86;90.72;101502.22;124054;1099;107086;-80
2023/01/02 10:43:00;;;;;;;64.77;39.47;;;;;;;8.94;91.45;101498.36;123993;1099;104306;-81
2023/01/02 10:45:33;;;;;;;63.65;39.95;;;;;;;9.06;90.78;101499.88;124087;1099;104326;-80
2023/01/02 10:48:05;;;;;;;65.90;41.17;;;;;;;9.15;90.91;101495.17;123985;1099;104370;-80
2023/01/02 10:50:41;;;;;;;70.27;40.93;;;;;;;9.23;91.15;101491.27;124030;1099;104205;-80
2023/01/02 10:53:22;;;;;;;67.23;41.17;;;;;;;9.31;90.41;101489.97;124210;1099;104486;-80
2023/01/02 10:55:53;;;;;;;66.40;41.53;;;;;;;9.39;90.71;101482.55;124041;1099;104293;-80
2023/01/02 10:58:26;;;;;;;73.95;43.65;;;;;;;9.47;90.42;101480.36;123958;1098;104252;-80
2023/01/02 11:01:07;;;;;;;75.97;45.50;;;;;;;9.57;90.61;101484.37;124162;1099;104268;-80
2023/01/02 11:03:41;;;;;;;72.30;45.63;;;;;;;9.66;90.60;101487.52;123730;1099;104349;-80
2023/01/02 11:06:23;;;;;;;77.13;45.87;;;;;;;9.74;89.66;101485.31;123879;1097;104418;-80
2023/01/02 11:08:59;;;;;;;75.33;45.20;;;;;;;9.81;90.04;101488.36;124149;1099;104257;-80
2023/01/02 11:11:32;;;;;;;75.33;46.27;;;;;;;9.87;89.68;101483.45;124141;1099;104239;-80
2023/01/02 11:14:10;;;;;;;75.37;46.63;;;;;;;9.91;89.81;101474.05;124152;1099;104172;-80
2023/01/02 11:16:42;;;;;;;78.20;48.13;;;;;;;9.96;89.81;101469.94;124301;1099;104379;-80
2023/01/02 11:19:21;;;;;;;76.63;46.97;;;;;;;10.01;90.10;101470.19;123956;1099;104405;-80
2023/01/02 11:21:54;;;;;;;82.53;49.47;;;;;;;10.04;89.39;101471.25;124005;1099;104192;-80
2023/01/02 11:24:27;;;;;;;79.27;48.92;;;;;;;10.12;89.41;101476.02;123997;1099;104265;-79
2023/01/02 11:27:02;;;;;;;82.25;50.30;;;;;;;10.17;88.95;101469.28;124010;1099;104261;-80
2023/01/02 11:29:36;;;;;;;79.27;48.57;;;;;;;10.20;89.43;101462.46;124111;1099;104325;-80
2023/01/02 11:32:07;;;;;;;78.75;49.75;;;;;;;10.23;89.10;101457.37;123791;1099;104390;-80